sensor_id;sensor_type;location;lat;lon;timestamp;pressure;altitude;pressure_sealevel;temperature;humidity
61786;BME280;47692;53.714;11.372;2023-02-16T00:01:41;101706.91;;;-0.33;100.00
61786;BME280;47692;53.714;11.372;2023-02-16T00:04:27;101712.88;;;-0.33;100.00
61786;BME280;47692;53.714;11.372;2023-02-16T00:06:54;101710.94;;;-0.40;100.00
61786;BME280;47692;53.714;11.372;2023-02-16T00:09:20;101706.53;;;-0.42;100.00
61786;BME280;47692;53.714;11.372;2023-02-16T00:11:46;101701.63;;;-0.36;100.00
61786;BME280;47692;53.714;11.372;2023-02-16T00:14:33;101711.91;;;-0.36;100.00
61786;BME280;47692;53.714;11.372;2023-02-16T00:16:59;101704.16;;;-0.38;100.00
61786;BME280;47692;53.714;11.372;2023-02-16T00:19:36;101694.88;;;-0.34;100.00
61786;BME280;47692;53.714;11.372;2023-02-16T00:22:02;101696.41;;;-0.39;100.00
61786;BME280;47692;53.714;11.372;2023-02-16T00:24:29;101688.69;;;-0.39;100.00
61786;BME280;47692;53.714;11.372;2023-02-16T00:26:55;101695.31;;;-0.46;100.00
61786;BME280;47692;53.714;11.372;2023-02-16T00:29:30;101690.03;;;-0.49;100.00
61786;BME280;47692;53.714;11.372;2023-02-16T00:31:58;101690.16;;;-0.46;100.00
61786;BME280;47692;53.714;11.372;2023-02-16T00:34:32;101682.00;;;-0.36;100.00
61786;BME280;47692;53.714;11.372;2023-02-16T00:37:00;101686.13;;;-0.39;100.00
61786;BME280;47692;53.714;11.372;2023-02-16T00:39:26;101681.22;;;-0.33;100.00
61786;BME280;47692;53.714;11.372;2023-02-16T00:41:53;101683.66;;;-0.36;100.00
61786;BME280;47692;53.714;11.372;2023-02-16T00:44:26;101665.66;;;-0.38;100.00
61786;BME280;47692;53.714;11.372;2023-02-16T00:46:53;101666.47;;;-0.39;100.00
61786;BME280;47692;53.714;11.372;2023-02-16T00:49:20;101666.25;;;-0.45;100.00
61786;BME280;47692;53.714;11.372;2023-02-16T00:51:46;101675.31;;;-0.55;100.00
61786;BME280;47692;53.714;11.372;2023-02-16T00:54:11;101664.56;;;-0.67;100.00
61786;BME280;47692;53.714;11.372;2023-02-16T00:56:37;101672.88;;;-0.73;100.00
61786;BME280;47692;53.714;11.372;2023-02-16T00:59:05;101676.41;;;-0.71;100.00
61786;BME280;47692;53.714;11.372;2023-02-16T01:01:32;101682.34;;;-0.72;100.00
61786;BME280;47692;53.714;11.372;2023-02-16T01:04:04;101676.56;;;-0.66;100.00
61786;BME280;47692;53.714;11.372;2023-02-16T01:06:30;101675.78;;;-0.63;100.00
61786;BME280;47692;53.714;11.372;2023-02-16T01:09:16;101674.97;;;-0.62;100.00
61786;BME280;47692;53.714;11.372;2023-02-16T01:12:02;101670.66;;;-0.63;100.00
61786;BME280;47692;53.714;11.372;2023-02-16T01:14:30;101664.56;;;-0.67;100.00
61786;BME280;47692;53.714;11.372;2023-02-16T01:16:57;101668.94;;;-0.64;100.00
61786;BME280;47692;53.714;11.372;2023-02-16T01:19:22;101665.44;;;-0.67;100.00
61786;BME280;47692;53.714;11.372;2023-02-16T01:21:48;101675.75;;;-0.65;100.00
61786;BME280;47692;53.714;11.372;2023-02-16T01:24:13;101665.53;;;-0.63;100.00
61786;BME280;47692;53.714;11.372;2023-02-16T01:26:41;101656.78;;;-0.69;100.00
61786;BME280;47692;53.714;11.372;2023-02-16T01:29:16;101662.63;;;-0.73;100.00
61786;BME280;47692;53.714;11.372;2023-02-16T01:31:42;101661.34;;;-0.61;100.00
61786;BME280;47692;53.714;11.372;2023-02-16T01:34:08;101655.41;;;-0.60;100.00
61786;BME280;47692;53.714;11.372;2023-02-16T01:36:36;101645.16;;;-0.60;100.00
61786;BME280;47692;53.714;11.372;2023-02-16T01:39:02;101651.81;;;-0.66;100.00
61786;BME280;47692;53.714;11.372;2023-02-16T01:44:00;101645.78;;;-0.66;100.00
61786;BME280;47692;53.714;11.372;2023-02-16T01:46:49;101641.53;;;-0.66;100.00
61786;BME280;47692;53.714;11.372;2023-02-16T01:49:18;101646.53;;;-0.69;100.00
61786;BME280;47692;53.714;11.372;2023-02-16T01:52:15;101637.28;;;-0.65;100.00
61786;BME280;47692;53.714;11.372;2023-02-16T01:57:48;101641.06;;;-0.55;100.00
61786;BME280;47692;53.714;11.372;2023-02-16T02:03:35;101642.75;;;-0.56;100.00
61786;BME280;47692;53.714;11.372;2023-02-16T02:06:32;101650.63;;;-0.51;100.00
61786;BME280;47692;53.714;11.372;2023-02-16T02:09:02;101648.03;;;-0.51;100.00
61786;BME280;47692;53.714;11.372;2023-02-16T02:11:42;101642.22;;;-0.47;100.00
61786;BME280;47692;53.714;11.372;2023-02-16T02:14:15;101635.69;;;-0.39;100.00
61786;BME280;47692;53.714;11.372;2023-02-16T02:16:55;101635.44;;;-0.45;100.00
61786;BME280;47692;53.714;11.372;2023-02-16T02:19:21;101638.00;;;-0.45;100.00
61786;BME280;47692;53.714;11.372;2023-02-16T02:27:33;101618.44;;;-0.43;100.00
61786;BME280;47692;53.714;11.372;2023-02-16T02:30:26;101614.91;;;-0.45;100.00
61786;BME280;47692;53.714;11.372;2023-02-16T02:41:19;101611.53;;;-0.44;100.00
61786;BME280;47692;53.714;11.372;2023-02-16T02:44:01;101604.88;;;-0.39;100.00
61786;BME280;47692;53.714;11.372;2023-02-16T02:46:33;101598.75;;;-0.42;100.00
61786;BME280;47692;53.714;11.372;2023-02-16T02:49:00;101611.69;;;-0.41;100.00
61786;BME280;47692;53.714;11.372;2023-02-16T02:51:25;101600.97;;;-0.53;100.00
61786;BME280;47692;53.714;11.372;2023-02-16T02:54:00;101606.19;;;-0.50;100.00
61786;BME280;47692;53.714;11.372;2023-02-16T02:56:59;101597.41;;;-0.57;100.00
61786;BME280;47692;53.714;11.372;2023-02-16T02:59:50;101610.94;;;-0.61;100.00
61786;BME280;47692;53.714;11.372;2023-02-16T03:02:36;101603.16;;;-0.62;100.00
61786;BME280;47692;53.714;11.372;2023-02-16T03:05:04;101604.34;;;-0.54;100.00
61786;BME280;47692;53.714;11.372;2023-02-16T03:07:32;101611.97;;;-0.56;100.00
61786;BME280;47692;53.714;11.372;2023-02-16T03:10:14;101609.47;;;-0.54;100.00
61786;BME280;47692;53.714;11.372;2023-02-16T03:13:00;101614.59;;;-0.54;100.00
61786;BME280;47692;53.714;11.372;2023-02-16T03:15:27;101610.28;;;-0.55;100.00
61786;BME280;47692;53.714;11.372;2023-02-16T03:17:55;101606.78;;;-0.57;100.00
61786;BME280;47692;53.714;11.372;2023-02-16T03:20:40;101611.09;;;-0.56;100.00
61786;BME280;47692;53.714;11.372;2023-02-16T03:23:26;101612.75;;;-0.58;100.00
61786;BME280;47692;53.714;11.372;2023-02-16T03:26:12;101627.53;;;-0.51;100.00
61786;BME280;47692;53.714;11.372;2023-02-16T03:28:57;101615.53;;;-0.52;100.00
61786;BME280;47692;53.714;11.372;2023-02-16T03:31:42;101616.56;;;-0.47;100.00
61786;BME280;47692;53.714;11.372;2023-02-16T03:34:08;101615.06;;;-0.42;100.00
61786;BME280;47692;53.714;11.372;2023-02-16T03:36:36;101615.09;;;-0.40;100.00
61786;BME280;47692;53.714;11.372;2023-02-16T03:39:02;101616.81;;;-0.41;100.00
61786;BME280;47692;53.714;11.372;2023-02-16T03:41:33;101615.28;;;-0.36;100.00
61786;BME280;47692;53.714;11.372;2023-02-16T03:43:59;101614.34;;;-0.38;100.00
61786;BME280;47692;53.714;11.372;2023-02-16T03:46:24;101617.56;;;-0.43;100.00
61786;BME280;47692;53.714;11.372;2023-02-16T03:48:50;101601.94;;;-0.50;100.00
61786;BME280;47692;53.714;11.372;2023-02-16T03:51:15;101593.34;;;-0.50;100.00
61786;BME280;47692;53.714;11.372;2023-02-16T03:53:40;101594.72;;;-0.60;100.00
61786;BME280;47692;53.714;11.372;2023-02-16T03:56:09;101592.00;;;-0.64;100.00
61786;BME280;47692;53.714;11.372;2023-02-16T03:58:34;101595.38;;;-0.66;100.00
61786;BME280;47692;53.714;11.372;2023-02-16T04:01:00;101595.59;;;-0.59;100.00
61786;BME280;47692;53.714;11.372;2023-02-16T04:03:25;101601.41;;;-0.63;100.00
61786;BME280;47692;53.714;11.372;2023-02-16T04:05:51;101599.59;;;-0.66;100.00
61786;BME280;47692;53.714;11.372;2023-02-16T04:08:16;101598.75;;;-0.67;100.00
61786;BME280;47692;53.714;11.372;2023-02-16T04:10:42;101600.56;;;-0.64;100.00
61786;BME280;47692;53.714;11.372;2023-02-16T04:13:07;101602.34;;;-0.61;100.00
61786;BME280;47692;53.714;11.372;2023-02-16T04:15:33;101602.34;;;-0.61;100.00
61786;BME280;47692;53.714;11.372;2023-02-16T04:17:58;101596.59;;;-0.56;100.00
61786;BME280;47692;53.714;11.372;2023-02-16T04:20:26;101603.53;;;-0.53;100.00
61786;BME280;47692;53.714;11.372;2023-02-16T04:22:52;101600.19;;;-0.51;100.00
61786;BME280;47692;53.714;11.372;2023-02-16T04:25:18;101597.69;;;-0.49;100.00
61786;BME280;47692;53.714;11.372;2023-02-16T04:27:44;101590.91;;;-0.47;100.00
61786;BME280;47692;53.714;11.372;2023-02-16T04:30:12;101592.94;;;-0.38;100.00
61786;BME280;47692;53.714;11.372;2023-02-16T04:32:37;101596.38;;;-0.38;100.00
61786;BME280;47692;53.714;11.372;2023-02-16T04:35:04;101596.59;;;-0.31;100.00
61786;BME280;47692;53.714;11.372;2023-02-16T04:37:29;101586.44;;;-0.28;100.00
61786;BME280;47692;53.714;11.372;2023-02-16T04:39:55;101591.38;;;-0.35;100.00
61786;BME280;47692;53.714;11.372;2023-02-16T04:42:20;101591.38;;;-0.35;100.00
61786;BME280;47692;53.714;11.372;2023-02-16T04:44:45;101587.31;;;-0.28;100.00
61786;BME280;47692;53.714;11.372;2023-02-16T04:47:11;101588.25;;;-0.26;100.00
61786;BME280;47692;53.714;11.372;2023-02-16T04:49:36;101575.50;;;-0.23;100.00
61786;BME280;47692;53.714;11.372;2023-02-16T04:52:02;101577.22;;;-0.23;100.00
61786;BME280;47692;53.714;11.372;2023-02-16T04:54:29;101576.25;;;-0.27;100.00
61786;BME280;47692;53.714;11.372;2023-02-16T04:56:54;101574.53;;;-0.26;100.00
61786;BME280;47692;53.714;11.372;2023-02-16T04:59:20;101561.00;;;-0.22;100.00
61786;BME280;47692;53.714;11.372;2023-02-16T05:01:45;101572.84;;;-0.26;100.00
61786;BME280;47692;53.714;11.372;2023-02-16T05:04:10;101570.56;;;-0.18;100.00
61786;BME280;47692;53.714;11.372;2023-02-16T05:06:37;101575.78;;;-0.15;100.00
61786;BME280;47692;53.714;11.372;2023-02-16T05:09:04;101557.72;;;-0.18;100.00
61786;BME280;47692;53.714;11.372;2023-02-16T05:11:30;101556.44;;;-0.31;100.00
61786;BME280;47692;53.714;11.372;2023-02-16T05:14:27;101559.03;;;-0.29;100.00
61786;BME280;47692;53.714;11.372;2023-02-16T05:19:38;101557.25;;;-0.32;100.00
61786;BME280;47692;53.714;11.372;2023-02-16T05:22:04;101560.72;;;-0.30;100.00
61786;BME280;47692;53.714;11.372;2023-02-16T05:24:29;101563.22;;;-0.31;100.00
61786;BME280;47692;53.714;11.372;2023-02-16T05:26:55;101554.75;;;-0.29;100.00
61786;BME280;47692;53.714;11.372;2023-02-16T05:29:20;101554.00;;;-0.26;100.00
61786;BME280;47692;53.714;11.372;2023-02-16T05:31:46;101557.41;;;-0.27;100.00
61786;BME280;47692;53.714;11.372;2023-02-16T05:34:11;101556.66;;;-0.25;100.00
61786;BME280;47692;53.714;11.372;2023-02-16T05:36:37;101554.66;;;-0.32;100.00
61786;BME280;47692;53.714;11.372;2023-02-16T05:39:02;101557.34;;;-0.29;100.00
61786;BME280;47692;53.714;11.372;2023-02-16T05:41:28;101551.44;;;-0.26;100.00
61786;BME280;47692;53.714;11.372;2023-02-16T05:43:59;101552.16;;;-0.30;100.00
61786;BME280;47692;53.714;11.372;2023-02-16T05:46:27;101560.56;;;-0.35;100.00
61786;BME280;47692;53.714;11.372;2023-02-16T05:48:52;101555.53;;;-0.31;100.00
61786;BME280;47692;53.714;11.372;2023-02-16T05:51:18;101562.19;;;-0.37;100.00
61786;BME280;47692;53.714;11.372;2023-02-16T05:53:44;101557.19;;;-0.34;100.00
61786;BME280;47692;53.714;11.372;2023-02-16T05:56:10;101556.34;;;-0.33;100.00
61786;BME280;47692;53.714;11.372;2023-02-16T05:58:36;101556.44;;;-0.31;100.00
61786;BME280;47692;53.714;11.372;2023-02-16T06:01:02;101567.34;;;-0.37;100.00
61786;BME280;47692;53.714;11.372;2023-02-16T06:03:28;101559.75;;;-0.34;100.00
61786;BME280;47692;53.714;11.372;2023-02-16T06:05:59;101555.44;;;-0.35;100.00
61786;BME280;47692;53.714;11.372;2023-02-16T06:08:25;101563.06;;;-0.36;100.00
61786;BME280;47692;53.714;11.372;2023-02-16T06:10:51;101565.81;;;-0.31;100.00
61786;BME280;47692;53.714;11.372;2023-02-16T06:13:18;101560.66;;;-0.31;100.00
61786;BME280;47692;53.714;11.372;2023-02-16T06:15:44;101554.47;;;-0.38;100.00
61786;BME280;47692;53.714;11.372;2023-02-16T06:18:11;101556.44;;;-0.31;100.00
61786;BME280;47692;53.714;11.372;2023-02-16T06:20:41;101553.78;;;-0.33;100.00
61786;BME280;47692;53.714;11.372;2023-02-16T06:23:09;101551.38;;;-0.28;100.00
61786;BME280;47692;53.714;11.372;2023-02-16T06:25:35;101554.84;;;-0.27;100.00
61786;BME280;47692;53.714;11.372;2023-02-16T06:28:00;101561.78;;;-0.25;100.00
61786;BME280;47692;53.714;11.372;2023-02-16T06:30:26;101559.13;;;-0.26;100.00
61786;BME280;47692;53.714;11.372;2023-02-16T06:32:51;101561.81;;;-0.23;100.00
61786;BME280;47692;53.714;11.372;2023-02-16T06:35:17;101558.91;;;-0.33;100.00
61786;BME280;47692;53.714;11.372;2023-02-16T06:37:42;101564.16;;;-0.29;100.00
61786;BME280;47692;53.714;11.372;2023-02-16T06:40:08;101564.13;;;-0.31;100.00
61786;BME280;47692;53.714;11.372;2023-02-16T06:42:35;101567.47;;;-0.34;100.00
61786;BME280;47692;53.714;11.372;2023-02-16T06:45:01;101579.34;;;-0.36;100.00
61786;BME280;47692;53.714;11.372;2023-02-16T06:47:26;101581.97;;;-0.34;100.00
61786;BME280;47692;53.714;11.372;2023-02-16T06:49:52;101573.22;;;-0.39;100.00
61786;BME280;47692;53.714;11.372;2023-02-16T06:52:17;101572.59;;;-0.34;100.00
61786;BME280;47692;53.714;11.372;2023-02-16T06:54:42;101569.13;;;-0.34;100.00
61786;BME280;47692;53.714;11.372;2023-02-16T06:57:08;101568.31;;;-0.33;100.00
61786;BME280;47692;53.714;11.372;2023-02-16T06:59:33;101569.19;;;-0.33;100.00
61786;BME280;47692;53.714;11.372;2023-02-16T07:01:58;101572.69;;;-0.30;100.00
61786;BME280;47692;53.714;11.372;2023-02-16T07:04:24;101572.81;;;-0.27;100.00
61786;BME280;47692;53.714;11.372;2023-02-16T07:06:49;101570.28;;;-0.26;100.00
61786;BME280;47692;53.714;11.372;2023-02-16T07:09:14;101568.63;;;-0.24;100.00
61786;BME280;47692;53.714;11.372;2023-02-16T07:11:40;101572.94;;;-0.23;100.00
61786;BME280;47692;53.714;11.372;2023-02-16T07:14:05;101552.59;;;-0.18;100.00
61786;BME280;47692;53.714;11.372;2023-02-16T07:16:30;101553.56;;;-0.14;100.00
61786;BME280;47692;53.714;11.372;2023-02-16T07:18:56;101552.97;;;-0.07;100.00
61786;BME280;47692;53.714;11.372;2023-02-16T07:21:21;101559.97;;;-0.02;100.00
61786;BME280;47692;53.714;11.372;2023-02-16T07:23:46;101556.59;;;-0.01;100.00
61786;BME280;47692;53.714;11.372;2023-02-16T07:26:12;101563.78;;;0.10;100.00
61786;BME280;47692;53.714;11.372;2023-02-16T07:28:37;101560.41;;;0.11;100.00
61786;BME280;47692;53.714;11.372;2023-02-16T07:31:11;101560.59;;;0.17;100.00
61786;BME280;47692;53.714;11.372;2023-02-16T07:33:36;101565.88;;;0.20;100.00
61786;BME280;47692;53.714;11.372;2023-02-16T07:36:02;101562.47;;;0.21;100.00
61786;BME280;47692;53.714;11.372;2023-02-16T07:38:28;101577.97;;;0.24;100.00
61786;BME280;47692;53.714;11.372;2023-02-16T07:40:55;101566.97;;;0.28;100.00
61786;BME280;47692;53.714;11.372;2023-02-16T07:43:20;101552.38;;;0.27;100.00
61786;BME280;47692;53.714;11.372;2023-02-16T07:45:45;101564.59;;;0.35;100.00
61786;BME280;47692;53.714;11.372;2023-02-16T07:48:11;101562.09;;;0.36;100.00
61786;BME280;47692;53.714;11.372;2023-02-16T07:50:37;101551.09;;;0.40;100.00
61786;BME280;47692;53.714;11.372;2023-02-16T07:53:03;101562.34;;;0.44;100.00
61786;BME280;47692;53.714;11.372;2023-02-16T07:55:28;101569.25;;;0.45;100.00
61786;BME280;47692;53.714;11.372;2023-02-16T07:57:54;101563.44;;;0.52;100.00
61786;BME280;47692;53.714;11.372;2023-02-16T08:00:24;101573.72;;;0.52;100.00
61786;BME280;47692;53.714;11.372;2023-02-16T08:02:50;101567.69;;;0.50;100.00
61786;BME280;47692;53.714;11.372;2023-02-16T08:05:16;101568.59;;;0.52;100.00
61786;BME280;47692;53.714;11.372;2023-02-16T08:07:41;101571.31;;;0.57;100.00
61786;BME280;47692;53.714;11.372;2023-02-16T08:10:07;101577.34;;;0.57;100.00
61786;BME280;47692;53.714;11.372;2023-02-16T08:12:33;101567.81;;;0.55;100.00
61786;BME280;47692;53.714;11.372;2023-02-16T08:14:58;101573.06;;;0.58;100.00
61786;BME280;47692;53.714;11.372;2023-02-16T08:17:24;101573.31;;;0.66;100.00
61786;BME280;47692;53.714;11.372;2023-02-16T08:19:49;101570.16;;;0.74;100.00
61786;BME280;47692;53.714;11.372;2023-02-16T08:22:16;101579.66;;;0.77;100.00
61786;BME280;47692;53.714;11.372;2023-02-16T08:24:42;101580.63;;;0.80;100.00
61786;BME280;47692;53.714;11.372;2023-02-16T08:27:08;101579.84;;;0.83;100.00
61786;BME280;47692;53.714;11.372;2023-02-16T08:29:33;101579.13;;;0.87;100.00
61786;BME280;47692;53.714;11.372;2023-02-16T08:32:00;101569.84;;;0.92;100.00
61786;BME280;47692;53.714;11.372;2023-02-16T08:34:28;101563.16;;;0.98;100.00
61786;BME280;47692;53.714;11.372;2023-02-16T08:36:55;101562.47;;;1.03;100.00
61786;BME280;47692;53.714;11.372;2023-02-16T08:39:25;101560.94;;;1.10;100.00
61786;BME280;47692;53.714;11.372;2023-02-16T08:41:52;101568.03;;;1.17;100.00
61786;BME280;47692;53.714;11.372;2023-02-16T08:44:19;101568.09;;;1.20;100.00
61786;BME280;47692;53.714;11.372;2023-02-16T08:46:46;101568.31;;;1.28;100.00
61786;BME280;47692;53.714;11.372;2023-02-16T08:49:15;101572.78;;;1.34;100.00
61786;BME280;47692;53.714;11.372;2023-02-16T08:51:45;101582.59;;;1.47;100.00
61786;BME280;47692;53.714;11.372;2023-02-16T08:54:22;101574.31;;;1.57;100.00
61786;BME280;47692;53.714;11.372;2023-02-16T08:56:50;101565.97;;;1.66;100.00
61786;BME280;47692;53.714;11.372;2023-02-16T08:59:18;101566.44;;;1.83;100.00
61786;BME280;47692;53.714;11.372;2023-02-16T09:01:45;101560.56;;;1.89;100.00
61786;BME280;47692;53.714;11.372;2023-02-16T09:04:11;101554.91;;;2.02;100.00
61786;BME280;47692;53.714;11.372;2023-02-16T09:06:38;101550.84;;;2.12;100.00
61786;BME280;47692;53.714;11.372;2023-02-16T09:09:04;101547.63;;;2.21;100.00
61786;BME280;47692;53.714;11.372;2023-02-16T09:11:30;101548.03;;;2.36;100.00
61786;BME280;47692;53.714;11.372;2023-02-16T09:13:56;101549.97;;;2.45;100.00
61786;BME280;47692;53.714;11.372;2023-02-16T09:16:22;101559.66;;;2.57;100.00
61786;BME280;47692;53.714;11.372;2023-02-16T09:18:49;101562.72;;;2.77;100.00
61786;BME280;47692;53.714;11.372;2023-02-16T09:21:23;101562.13;;;2.89;100.00
61786;BME280;47692;53.714;11.372;2023-02-16T09:23:50;101558.88;;;2.98;100.00
61786;BME280;47692;53.714;11.372;2023-02-16T09:26:19;101568.56;;;3.08;100.00
61786;BME280;47692;53.714;11.372;2023-02-16T09:28:45;101567.16;;;3.22;100.00
61786;BME280;47692;53.714;11.372;2023-02-16T09:31:37;101567.28;;;3.29;100.00
61786;BME280;47692;53.714;11.372;2023-02-16T09:34:07;101568.31;;;3.37;100.00
61786;BME280;47692;53.714;11.372;2023-02-16T09:36:36;101566.66;;;3.40;100.00
61786;BME280;47692;53.714;11.372;2023-02-16T09:39:02;101558.28;;;3.52;100.00
61786;BME280;47692;53.714;11.372;2023-02-16T09:41:45;101561.00;;;3.59;100.00
61786;BME280;47692;53.714;11.372;2023-02-16T09:46:59;101553.53;;;3.74;100.00
61786;BME280;47692;53.714;11.372;2023-02-16T09:49:35;101560.50;;;3.78;100.00
61786;BME280;47692;53.714;11.372;2023-02-16T09:54:55;101563.28;;;3.89;100.00
61786;BME280;47692;53.714;11.372;2023-02-16T10:00:19;101561.69;;;3.96;100.00
61786;BME280;47692;53.714;11.372;2023-02-16T10:02:54;101555.75;;;4.01;100.00
61786;BME280;47692;53.714;11.372;2023-02-16T10:08:12;101549.88;;;4.10;100.00
61786;BME280;47692;53.714;11.372;2023-02-16T10:13:31;101555.22;;;4.19;100.00
61786;BME280;47692;53.714;11.372;2023-02-16T10:16:03;101562.97;;;4.19;100.00
61786;BME280;47692;53.714;11.372;2023-02-16T10:18:33;101564.75;;;4.24;100.00
61786;BME280;47692;53.714;11.372;2023-02-16T10:21:02;101570.88;;;4.29;100.00
61786;BME280;47692;53.714;11.372;2023-02-16T10:23:50;101571.84;;;4.34;100.00
61786;BME280;47692;53.714;11.372;2023-02-16T10:26:36;101581.38;;;4.38;100.00
61786;BME280;47692;53.714;11.372;2023-02-16T10:29:22;101576.25;;;4.41;100.00
61786;BME280;47692;53.714;11.372;2023-02-16T10:34:38;101568.59;;;4.47;100.00
61786;BME280;47692;53.714;11.372;2023-02-16T10:46:10;101569.47;;;4.49;100.00
61786;BME280;47692;53.714;11.372;2023-02-16T10:48:39;101573.84;;;4.52;100.00
61786;BME280;47692;53.714;11.372;2023-02-16T10:51:07;101570.44;;;4.56;100.00
61786;BME280;47692;53.714;11.372;2023-02-16T10:53:50;101568.75;;;4.58;100.00
61786;BME280;47692;53.714;11.372;2023-02-16T10:59:15;101561.19;;;4.69;100.00
61786;BME280;47692;53.714;11.372;2023-02-16T11:01:43;101561.19;;;4.72;100.00
61786;BME280;47692;53.714;11.372;2023-02-16T11:04:28;101559.63;;;4.80;100.00
61786;BME280;47692;53.714;11.372;2023-02-16T11:09:27;101557.94;;;4.82;100.00
61786;BME280;47692;53.714;11.372;2023-02-16T11:11:53;101551.88;;;4.83;100.00
61786;BME280;47692;53.714;11.372;2023-02-16T11:14:21;101561.38;;;4.84;100.00
61786;BME280;47692;53.714;11.372;2023-02-16T11:16:48;101556.34;;;4.94;100.00
61786;BME280;47692;53.714;11.372;2023-02-16T11:19:26;101554.63;;;4.96;100.00
61786;BME280;47692;53.714;11.372;2023-02-16T11:21:54;101549.59;;;5.05;100.00
61786;BME280;47692;53.714;11.372;2023-02-16T11:24:33;101551.47;;;5.15;100.00
61786;BME280;47692;53.714;11.372;2023-02-16T11:27:04;101544.69;;;5.27;100.00
61786;BME280;47692;53.714;11.372;2023-02-16T11:29:30;101546.50;;;5.31;100.00
61786;BME280;47692;53.714;11.372;2023-02-16T11:31:56;101535.28;;;5.33;100.00
61786;BME280;47692;53.714;11.372;2023-02-16T11:37:04;101538.00;;;5.44;100.00
61786;BME280;47692;53.714;11.372;2023-02-16T11:39:40;101539.81;;;5.52;100.00
61786;BME280;47692;53.714;11.372;2023-02-16T11:42:44;101536.50;;;5.63;100.00
61786;BME280;47692;53.714;11.372;2023-02-16T11:45:25;101535.66;;;5.68;100.00
61786;BME280;47692;53.714;11.372;2023-02-16T11:47:54;101534.88;;;5.73;100.00
61786;BME280;47692;53.714;11.372;2023-02-16T11:50:27;101544.47;;;5.82;100.00
61786;BME280;47692;53.714;11.372;2023-02-16T11:52:56;101529.84;;;5.89;100.00
61786;BME280;47692;53.714;11.372;2023-02-16T11:55:28;101532.47;;;5.93;100.00
61786;BME280;47692;53.714;11.372;2023-02-16T12:11:26;101537.53;;;5.82;100.00
61786;BME280;47692;53.714;11.372;2023-02-16T12:14:26;101545.38;;;5.86;100.00
61786;BME280;47692;53.714;11.372;2023-02-16T12:17:20;101541.06;;;5.89;100.00
61786;BME280;47692;53.714;11.372;2023-02-16T12:19:58;101531.69;;;5.99;100.00
61786;BME280;47692;53.714;11.372;2023-02-16T12:22:42;101533.47;;;6.06;100.00
61786;BME280;47692;53.714;11.372;2023-02-16T12:27:56;101526.59;;;6.11;100.00
61786;BME280;47692;53.714;11.372;2023-02-16T12:30:35;101521.47;;;6.14;100.00
61786;BME280;47692;53.714;11.372;2023-02-16T12:35:59;101527.66;;;6.30;100.00
61786;BME280;47692;53.714;11.372;2023-02-16T12:38:44;101516.44;;;6.36;100.00
61786;BME280;47692;53.714;11.372;2023-02-16T12:43:44;101503.59;;;6.52;100.00
61786;BME280;47692;53.714;11.372;2023-02-16T12:46:21;101493.22;;;6.56;100.00
61786;BME280;47692;53.714;11.372;2023-02-16T12:48:52;101494.09;;;6.60;100.00
61786;BME280;47692;53.714;11.372;2023-02-16T12:51:21;101489.75;;;6.57;100.00
61786;BME280;47692;53.714;11.372;2023-02-16T12:53:57;101483.72;;;6.60;100.00
61786;BME280;47692;53.714;11.372;2023-02-16T12:56:30;101486.34;;;6.61;100.00
61786;BME280;47692;53.714;11.372;2023-02-16T12:59:05;101475.94;;;6.60;100.00
61786;BME280;47692;53.714;11.372;2023-02-16T13:01:33;101484.66;;;6.70;100.00
61786;BME280;47692;53.714;11.372;2023-02-16T13:04:12;101483.78;;;6.72;100.00
61786;BME280;47692;53.714;11.372;2023-02-16T13:09:50;101482.13;;;6.82;100.00
61786;BME280;47692;53.714;11.372;2023-02-16T13:12:32;101477.00;;;6.93;100.00
61786;BME280;47692;53.714;11.372;2023-02-16T13:15:09;101481.34;;;7.02;100.00
61786;BME280;47692;53.714;11.372;2023-02-16T13:17:51;101473.59;;;7.06;100.00
61786;BME280;47692;53.714;11.372;2023-02-16T13:20:19;101476.19;;;7.09;100.00
61786;BME280;47692;53.714;11.372;2023-02-16T13:23:11;101476.19;;;7.06;100.00
61786;BME280;47692;53.714;11.372;2023-02-16T13:36:26;101475.31;;;7.14;100.00
61786;BME280;47692;53.714;11.372;2023-02-16T13:41:45;101470.13;;;7.10;100.00
61786;BME280;47692;53.714;11.372;2023-02-16T13:44:30;101468.38;;;7.09;100.00
61786;BME280;47692;53.714;11.372;2023-02-16T13:47:01;101456.28;;;7.11;100.00
61786;BME280;47692;53.714;11.372;2023-02-16T13:51:57;101439.81;;;7.11;100.00
61786;BME280;47692;53.714;11.372;2023-02-16T13:54:38;101445.03;;;7.08;100.00
61786;BME280;47692;53.714;11.372;2023-02-16T13:57:10;101451.09;;;7.11;100.00
61786;BME280;47692;53.714;11.372;2023-02-16T14:02:01;101456.28;;;7.11;100.00
61786;BME280;47692;53.714;11.372;2023-02-16T14:22:49;101444.22;;;7.32;100.00
61786;BME280;47692;53.714;11.372;2023-02-16T14:30:52;101447.66;;;7.23;100.00
61786;BME280;47692;53.714;11.372;2023-02-16T14:33:24;101447.66;;;7.22;100.00
61786;BME280;47692;53.714;11.372;2023-02-16T14:38:32;101451.97;;;7.18;100.00
61786;BME280;47692;53.714;11.372;2023-02-16T14:41:00;101444.19;;;7.15;100.00
61786;BME280;47692;53.714;11.372;2023-02-16T14:43:33;101442.44;;;7.16;100.00
61786;BME280;47692;53.714;11.372;2023-02-16T14:49:20;101440.72;;;7.15;100.00
61786;BME280;47692;53.714;11.372;2023-02-16T14:57:25;101443.28;;;7.07;100.00
61786;BME280;47692;53.714;11.372;2023-02-16T14:59:59;101442.44;;;7.06;100.00
61786;BME280;47692;53.714;11.372;2023-02-16T15:02:30;101433.75;;;7.04;100.00
61786;BME280;47692;53.714;11.372;2023-02-16T15:04:56;101438.94;;;7.04;100.00
61786;BME280;47692;53.714;11.372;2023-02-16T15:07:24;101437.22;;;7.03;100.00
61786;BME280;47692;53.714;11.372;2023-02-16T15:09:55;101434.63;;;7.03;100.00